createdAt,value
2016-05-21T00:00:08.623Z,970.77
2016-05-21T00:01:08.625Z,970.79
2016-05-21T00:02:08.628Z,970.79
2016-05-21T00:03:08.631Z,970.72
2016-05-21T00:04:08.617Z,970.73
2016-05-21T00:05:08.620Z,970.75
2016-05-21T00:06:08.622Z,970.75
2016-05-21T00:07:08.626Z,970.75
2016-05-21T00:08:08.613Z,970.78
2016-05-21T00:09:08.616Z,970.76
2016-05-21T00:10:08.633Z,970.78
2016-05-21T00:11:08.633Z,970.76
2016-05-21T00:12:08.652Z,970.75
2016-05-21T00:13:08.670Z,970.81
2016-05-21T00:14:08.672Z,970.8
2016-05-21T00:15:08.691Z,970.8
2016-05-21T00:16:08.702Z,970.81
2016-05-21T00:17:08.710Z,970.82
2016-05-21T00:18:08.719Z,970.8
2016-05-21T00:19:08.727Z,970.77
2016-05-21T00:20:08.720Z,970.8
2016-05-21T00:21:08.726Z,970.79
2016-05-21T00:22:08.732Z,970.81
2016-05-21T00:23:08.736Z,970.78
2016-05-21T00:24:08.742Z,970.8
2016-05-21T00:25:08.746Z,970.76
2016-05-21T00:26:08.750Z,970.75
2016-05-21T00:27:08.738Z,970.74
2016-05-21T00:28:08.741Z,970.74
2016-05-21T00:29:08.744Z,970.75
2016-05-21T00:30:08.747Z,970.73
2016-05-21T00:31:08.735Z,970.73
2016-05-21T00:32:08.738Z,970.75
2016-05-21T00:33:08.740Z,970.7
2016-05-21T00:34:08.743Z,970.71
2016-05-21T00:35:08.746Z,970.73
2016-05-21T00:36:08.748Z,970.71
2016-05-21T00:37:08.736Z,970.75
2016-05-21T00:38:08.739Z,970.7
2016-05-21T00:39:08.741Z,970.65
2016-05-21T00:40:08.744Z,970.67
2016-05-21T00:41:08.747Z,970.65
2016-05-21T00:42:08.749Z,970.67
2016-05-21T00:43:08.752Z,970.66
2016-05-21T00:44:08.738Z,970.68
2016-05-21T00:45:08.742Z,970.65
2016-05-21T00:46:08.761Z,970.63
2016-05-21T00:47:08.747Z,970.68
2016-05-21T00:48:08.731Z,970.67
2016-05-21T00:49:08.734Z,970.68
2016-05-21T00:50:08.736Z,970.69
2016-05-21T00:51:08.739Z,970.65
2016-05-21T00:52:08.742Z,970.6
2016-05-21T00:53:08.744Z,970.64
2016-05-21T00:54:08.747Z,970.64
2016-05-21T00:55:08.734Z,970.62
2016-05-21T00:56:08.737Z,970.64
2016-05-21T00:57:08.740Z,970.64
2016-05-21T00:58:08.742Z,970.6
2016-05-21T00:59:08.745Z,970.6
2016-05-21T01:00:08.732Z,970.63
2016-05-21T01:01:08.735Z,970.64
2016-05-21T01:02:08.738Z,970.59
2016-05-21T01:03:08.740Z,970.59
2016-05-21T01:04:08.743Z,970.6
2016-05-21T01:05:08.746Z,970.62
2016-05-21T01:06:08.733Z,970.57
2016-05-21T01:07:08.736Z,970.59
2016-05-21T01:08:08.739Z,970.59
2016-05-21T01:09:08.741Z,970.58
2016-05-21T01:10:08.744Z,970.59
2016-05-21T01:11:08.730Z,970.6
2016-05-21T01:12:08.733Z,970.62
2016-05-21T01:13:08.736Z,970.61
2016-05-21T01:14:08.738Z,970.61
2016-05-21T01:15:08.726Z,970.57
2016-05-21T01:16:08.744Z,970.59
2016-05-21T01:17:08.747Z,970.58
2016-05-21T01:18:08.734Z,970.59
2016-05-21T01:19:08.736Z,970.59
2016-05-21T01:20:08.739Z,970.59
2016-05-21T01:21:08.742Z,970.62
2016-05-21T01:22:08.744Z,970.6
2016-05-21T01:23:08.732Z,970.62
2016-05-21T01:24:08.735Z,970.6
2016-05-21T01:25:08.737Z,970.6
2016-05-21T01:26:08.740Z,970.58
2016-05-21T01:27:08.726Z,970.57
2016-05-21T01:28:08.729Z,970.56
2016-05-21T01:29:08.732Z,970.54
2016-05-21T01:30:08.735Z,970.55
2016-05-21T01:31:08.738Z,970.54
2016-05-21T01:32:08.740Z,970.56
2016-05-21T01:33:08.743Z,970.53
2016-05-21T01:34:08.730Z,970.54
2016-05-21T01:35:08.732Z,970.54
2016-05-21T01:36:08.735Z,970.55
2016-05-21T01:37:08.738Z,970.55
2016-05-21T01:38:08.740Z,970.58
2016-05-21T01:39:08.728Z,970.59
2016-05-21T01:40:08.731Z,970.58
2016-05-21T01:41:08.733Z,970.55
2016-05-21T01:42:08.736Z,970.58
2016-05-21T01:43:08.739Z,970.55
2016-05-21T01:44:08.742Z,970.55
2016-05-21T01:45:08.729Z,970.55
2016-05-21T01:46:08.731Z,970.56
2016-05-21T01:47:08.734Z,970.58
2016-05-21T01:48:08.736Z,970.58
2016-05-21T01:49:08.724Z,970.56
2016-05-21T01:50:08.742Z,970.59
2016-05-21T01:51:08.729Z,970.56
2016-05-21T01:52:08.732Z,970.54
2016-05-21T01:53:08.734Z,970.53
2016-05-21T01:54:08.737Z,970.55
2016-05-21T01:55:08.724Z,970.58
2016-05-21T01:56:08.899Z,970.58
2016-05-21T01:57:08.730Z,970.59
2016-05-21T01:58:08.732Z,970.57
2016-05-21T01:59:08.735Z,970.59
2016-05-21T02:00:08.722Z,970.57
2016-05-21T02:01:08.724Z,970.58
2016-05-21T02:02:08.727Z,970.61
2016-05-21T02:03:08.729Z,970.58
2016-05-21T02:04:08.732Z,970.59
2016-05-21T02:05:08.735Z,970.61
2016-05-21T02:06:08.722Z,970.62
2016-05-21T02:07:08.725Z,970.6
2016-05-21T02:08:08.728Z,970.58
2016-05-21T02:09:08.745Z,970.64
2016-05-21T02:10:08.733Z,970.57
2016-05-21T02:11:08.736Z,970.6
2016-05-21T02:12:08.723Z,970.57
2016-05-21T02:13:08.726Z,970.53
2016-05-21T02:14:08.728Z,970.56
2016-05-21T02:15:08.731Z,970.57
2016-05-21T02:16:08.718Z,970.56
2016-05-21T02:17:08.720Z,970.55
2016-05-21T02:18:08.723Z,970.55
2016-05-21T02:19:08.725Z,970.54
2016-05-21T02:20:08.728Z,970.54
2016-05-21T02:21:08.731Z,970.51
2016-05-21T02:22:08.734Z,970.52
2016-05-21T02:23:08.721Z,970.52
2016-05-21T02:24:08.724Z,970.51
2016-05-21T02:25:08.727Z,970.48
2016-05-21T02:26:08.730Z,970.52
2016-05-21T02:27:08.716Z,970.53
2016-05-21T02:28:08.734Z,970.51
2016-05-21T02:29:08.722Z,970.5
2016-05-21T02:30:08.724Z,970.51
2016-05-21T02:31:08.727Z,970.47
2016-05-21T02:32:08.730Z,970.5
2016-05-21T02:33:08.717Z,970.47
2016-05-21T02:34:08.720Z,970.48
2016-05-21T02:35:08.722Z,970.48
2016-05-21T02:36:08.726Z,970.51
2016-05-21T02:37:08.727Z,970.44
2016-05-21T02:38:08.715Z,970.43
2016-05-21T02:39:08.718Z,970.43
2016-05-21T02:40:08.720Z,970.44
2016-05-21T02:41:09.067Z,970.44
2016-05-21T02:42:08.725Z,970.43
2016-05-21T02:43:08.712Z,970.43
2016-05-21T02:44:08.731Z,970.46
2016-05-21T02:45:08.717Z,970.43
2016-05-21T02:46:08.720Z,970.45
2016-05-21T02:47:08.722Z,970.44
2016-05-21T02:48:08.725Z,970.44
2016-05-21T02:49:08.713Z,970.42
2016-05-21T02:50:08.716Z,970.46
2016-05-21T02:51:08.734Z,970.44
2016-05-21T02:52:08.736Z,970.46
2016-05-21T02:53:08.724Z,970.48
2016-05-21T02:54:08.742Z,970.46
2016-05-21T02:55:08.713Z,970.5
2016-05-21T02:56:08.716Z,970.46
2016-05-21T02:57:08.719Z,970.45
2016-05-21T02:58:08.721Z,970.45
2016-05-21T02:59:08.708Z,970.4
2016-05-21T03:00:08.711Z,970.38
2016-05-21T03:01:08.714Z,970.39
2016-05-21T03:02:08.716Z,970.42
2016-05-21T03:03:08.718Z,970.4
2016-05-21T03:04:08.707Z,970.37
2016-05-21T03:05:08.709Z,970.36
2016-05-21T03:06:08.712Z,970.36
2016-05-21T03:07:08.714Z,970.33
2016-05-21T03:08:08.717Z,970.31
2016-05-21T03:09:08.704Z,970.33
2016-05-21T03:10:08.707Z,970.36
2016-05-21T03:11:08.881Z,970.34
2016-05-21T03:12:08.712Z,970.32
2016-05-21T03:13:08.715Z,970.32
2016-05-21T03:14:08.717Z,970.37
2016-05-21T03:15:08.705Z,970.34
2016-05-21T03:16:08.708Z,970.31
2016-05-21T03:17:08.710Z,970.33
2016-05-21T03:18:08.697Z,970.33
2016-05-21T03:19:08.700Z,970.29
2016-05-21T03:20:08.702Z,970.33
2016-05-21T03:21:08.706Z,970.35
2016-05-21T03:22:08.708Z,970.29
2016-05-21T03:23:08.695Z,970.34
2016-05-21T03:24:08.698Z,970.3
2016-05-21T03:25:08.700Z,970.29
2016-05-21T03:26:08.703Z,970.29
2016-05-21T03:27:08.705Z,970.3
2016-05-21T03:28:08.709Z,970.34
2016-05-21T03:29:08.696Z,970.33
2016-05-21T03:30:08.698Z,970.34
2016-05-21T03:31:08.701Z,970.33
2016-05-21T03:32:08.704Z,970.37
2016-05-21T03:33:08.706Z,970.34
2016-05-21T03:34:08.693Z,970.34
2016-05-21T03:35:08.696Z,970.29
2016-05-21T03:36:08.699Z,970.37
2016-05-21T03:37:08.701Z,970.31
2016-05-21T03:38:08.704Z,970.34
2016-05-21T03:39:08.691Z,970.34
2016-05-21T03:40:08.693Z,970.29
2016-05-21T03:41:08.696Z,970.28
2016-05-21T03:42:08.699Z,970.3
2016-05-21T03:43:08.701Z,970.3
2016-05-21T03:44:08.689Z,970.32
2016-05-21T03:45:08.707Z,970.32
2016-05-21T03:46:08.694Z,970.3
2016-05-21T03:47:08.697Z,970.29
2016-05-21T03:48:08.700Z,970.31
2016-05-21T03:49:08.703Z,970.29
2016-05-21T03:50:08.705Z,970.27
2016-05-21T03:51:08.692Z,970.24
2016-05-21T03:52:08.695Z,970.26
2016-05-21T03:53:08.697Z,970.25
2016-05-21T03:54:08.700Z,970.26
2016-05-21T03:55:08.703Z,970.22
2016-05-21T03:56:08.690Z,970.25
2016-05-21T03:57:08.693Z,970.23
2016-05-21T03:58:08.696Z,970.26
2016-05-21T03:59:08.699Z,970.27
2016-05-21T04:00:08.685Z,970.24
2016-05-21T04:01:08.688Z,970.26
2016-05-21T04:02:08.690Z,970.27
2016-05-21T04:03:08.693Z,970.29
2016-05-21T04:04:08.696Z,970.33
2016-05-21T04:05:08.699Z,970.31
2016-05-21T04:06:08.685Z,970.34
2016-05-21T04:07:08.688Z,970.33
2016-05-21T04:08:08.691Z,970.32
2016-05-21T04:09:08.693Z,970.33
2016-05-21T04:10:08.696Z,970.32
2016-05-21T04:11:08.684Z,970.33
2016-05-21T04:12:08.686Z,970.35
2016-05-21T04:13:08.689Z,970.29
2016-05-21T04:14:08.692Z,970.26
2016-05-21T04:15:08.695Z,970.24
2016-05-21T04:16:08.682Z,970.22
2016-05-21T04:17:08.684Z,970.28
2016-05-21T04:18:08.687Z,970.28
2016-05-21T04:19:08.689Z,970.29
2016-05-21T04:20:08.692Z,970.28
2016-05-21T04:21:08.695Z,970.36
2016-05-21T04:22:08.682Z,970.33
2016-05-21T04:23:08.684Z,970.33
2016-05-21T04:24:08.687Z,970.37
2016-05-21T04:25:08.689Z,970.32
2016-05-21T04:26:08.865Z,970.31
2016-05-21T04:27:08.679Z,970.32
2016-05-21T04:28:08.682Z,970.24
2016-05-21T04:29:08.685Z,970.24
2016-05-21T04:30:08.688Z,970.24
2016-05-21T04:31:08.691Z,970.22
2016-05-21T04:32:08.677Z,970.17
2016-05-21T04:33:08.696Z,970.13
2016-05-21T04:34:08.698Z,970.15
2016-05-21T04:35:08.685Z,970.12
2016-05-21T04:36:08.688Z,970.08
2016-05-21T04:37:08.690Z,970.1
2016-05-21T04:38:08.694Z,970.08
2016-05-21T04:39:08.696Z,970.09
2016-05-21T04:40:08.699Z,970.09
2016-05-21T04:41:08.937Z,970.13
2016-05-21T04:42:08.704Z,970.15
2016-05-21T04:43:08.692Z,970.15
2016-05-21T04:44:08.694Z,970.11
2016-05-21T04:45:08.697Z,970.13
2016-05-21T04:46:08.700Z,970.13
2016-05-21T04:47:08.703Z,970.16
2016-05-21T04:48:08.705Z,970.17
2016-05-21T04:49:08.692Z,970.16
2016-05-21T04:50:08.695Z,970.18
2016-05-21T04:51:08.698Z,970.19
2016-05-21T04:52:08.700Z,970.18
2016-05-21T04:53:08.703Z,970.21
2016-05-21T04:54:08.705Z,970.21
2016-05-21T04:55:08.708Z,970.19
2016-05-21T04:56:09.289Z,970.17
2016-05-21T04:57:08.698Z,970.17
2016-05-21T04:58:08.700Z,970.2
2016-05-21T04:59:08.702Z,970.17
2016-05-21T05:00:08.706Z,970.15
2016-05-21T05:01:08.708Z,970.17
2016-05-21T05:02:08.711Z,970.14
2016-05-21T05:03:08.713Z,970.16
2016-05-21T05:04:08.716Z,970.11
2016-05-21T05:05:08.719Z,970.12
2016-05-21T05:06:08.707Z,970.09
2016-05-21T05:07:08.709Z,970.08
2016-05-21T05:08:08.712Z,970.07
2016-05-21T05:09:08.714Z,970.04
2016-05-21T05:10:08.718Z,970.05
2016-05-21T05:11:08.720Z,970.08
2016-05-21T05:12:08.723Z,970.07
2016-05-21T05:13:08.726Z,970.09
2016-05-21T05:14:08.728Z,970.08
2016-05-21T05:15:08.731Z,970.1
2016-05-21T05:16:08.734Z,970.09
2016-05-21T05:17:08.737Z,970.1
2016-05-21T05:18:08.739Z,970.1
2016-05-21T05:19:08.742Z,970.07
2016-05-21T05:20:08.744Z,970.08
2016-05-21T05:21:08.747Z,970.09
2016-05-21T05:22:08.734Z,970.06
2016-05-21T05:23:08.736Z,970.1
2016-05-21T05:24:08.739Z,970.1
2016-05-21T05:25:08.742Z,970.1
2016-05-21T05:26:08.744Z,970.08
2016-05-21T05:27:08.747Z,970.08
2016-05-21T05:28:08.750Z,970.06
2016-05-21T05:29:08.768Z,970.07
2016-05-21T05:30:08.756Z,970.07
2016-05-21T05:31:08.758Z,970.04
2016-05-21T05:32:08.760Z,970.12
2016-05-21T05:33:08.763Z,970.12
2016-05-21T05:34:08.766Z,970.12
2016-05-21T05:35:08.769Z,970.1
2016-05-21T05:36:08.787Z,970.14
2016-05-21T05:37:08.775Z,970.2
2016-05-21T05:38:08.792Z,970.16
2016-05-21T05:39:08.779Z,970.18
2016-05-21T05:40:08.798Z,970.19
2016-05-21T05:41:08.801Z,970.18
2016-05-21T05:42:08.803Z,970.18
2016-05-21T05:43:08.806Z,970.21
2016-05-21T05:44:08.809Z,970.19
2016-05-21T05:45:08.812Z,970.25
2016-05-21T05:46:08.814Z,970.21
2016-05-21T05:47:08.817Z,970.17
2016-05-21T05:48:08.819Z,970.21
2016-05-21T05:49:08.822Z,970.23
2016-05-21T05:50:08.825Z,970.23
2016-05-21T05:51:08.843Z,970.24
2016-05-21T05:52:08.845Z,970.24
2016-05-21T05:53:08.848Z,970.21
2016-05-21T05:54:08.851Z,970.21
2016-05-21T05:55:08.853Z,970.23
2016-05-21T05:56:08.856Z,970.23
2016-05-21T05:57:08.859Z,970.27
2016-05-21T05:58:08.862Z,970.25
2016-05-21T05:59:08.864Z,970.26
2016-05-21T06:00:08.867Z,970.23
2016-05-21T06:01:08.885Z,970.23
2016-05-21T06:02:08.888Z,970.26
2016-05-21T06:03:08.891Z,970.27
2016-05-21T06:04:08.910Z,970.22
2016-05-21T06:05:08.897Z,970.19
2016-05-21T06:06:08.899Z,970.24
2016-05-21T06:07:08.918Z,970.18
2016-05-21T06:08:08.920Z,970.18
2016-05-21T06:09:08.923Z,970.21
2016-05-21T06:10:08.926Z,970.14
2016-05-21T06:11:08.944Z,970.14
2016-05-21T06:12:08.946Z,970.17
2016-05-21T06:13:08.949Z,970.18
2016-05-21T06:14:08.952Z,970.18
2016-05-21T06:15:08.970Z,970.24
2016-05-21T06:16:08.973Z,970.2
2016-05-21T06:17:08.976Z,970.27
2016-05-21T06:18:08.978Z,970.2
2016-05-21T06:19:08.981Z,970.2
2016-05-21T06:20:08.999Z,970.22
2016-05-21T06:21:09.001Z,970.24
2016-05-21T06:22:09.004Z,970.2
2016-05-21T06:23:09.007Z,970.19
2016-05-21T06:24:09.010Z,970.18
2016-05-21T06:25:09.028Z,970.21
2016-05-21T06:26:09.031Z,970.23
2016-05-21T06:27:09.034Z,970.19
2016-05-21T06:28:09.052Z,970.19
2016-05-21T06:29:09.055Z,970.25
2016-05-21T06:30:09.058Z,970.25
2016-05-21T06:31:09.075Z,970.27
2016-05-21T06:32:09.094Z,970.29
2016-05-21T06:33:09.080Z,970.28
2016-05-21T06:34:09.083Z,970.28
2016-05-21T06:35:09.102Z,970.23
2016-05-21T06:36:09.105Z,970.25
2016-05-21T06:37:09.108Z,970.24
2016-05-21T06:38:09.126Z,970.24
2016-05-21T06:39:09.129Z,970.22
2016-05-21T06:40:09.132Z,970.27
2016-05-21T06:41:09.619Z,970.2
2016-05-21T06:42:09.151Z,970.2
2016-05-21T06:43:09.155Z,970.18
2016-05-21T06:44:09.173Z,970.15
2016-05-21T06:45:09.176Z,970.15
2016-05-21T06:46:09.178Z,970.15
2016-05-21T06:47:09.196Z,970.13
2016-05-21T06:48:09.199Z,970.1
2016-05-21T06:49:09.218Z,970.16
2016-05-21T06:50:09.237Z,970.13
2016-05-21T06:51:09.223Z,970.09
2016-05-21T06:52:09.242Z,970.12
2016-05-21T06:53:09.244Z,970.14
2016-05-21T06:54:09.247Z,970.12
2016-05-21T06:55:09.250Z,970.08
2016-05-21T06:56:09.268Z,970.08
2016-05-21T06:57:09.286Z,970.06
2016-05-21T06:58:09.289Z,970.06
2016-05-21T06:59:09.292Z,970.05
2016-05-21T07:00:09.310Z,970.07
2016-05-21T07:01:09.313Z,970.06
2016-05-21T07:02:09.331Z,970.03
2016-05-21T07:03:09.333Z,970.07
2016-05-21T07:04:09.352Z,970.08
2016-05-21T07:05:09.355Z,970.07
2016-05-21T07:06:09.358Z,970.09
2016-05-21T07:07:09.375Z,970.08
2016-05-21T07:08:09.394Z,970.08
2016-05-21T07:09:09.397Z,970.13
2016-05-21T07:10:09.399Z,970.13
2016-05-21T07:11:09.417Z,970.15
2016-05-21T07:12:09.421Z,970.09
2016-05-21T07:13:09.438Z,970.1
2016-05-21T07:14:09.441Z,970.05
2016-05-21T07:15:09.460Z,970.08
2016-05-21T07:16:09.462Z,970.07
2016-05-21T07:17:09.465Z,970.14
2016-05-21T07:18:09.484Z,970.08
2016-05-21T07:19:09.487Z,970.13
2016-05-21T07:20:09.489Z,970.1
2016-05-21T07:21:09.507Z,970.11
2016-05-21T07:22:09.526Z,970.09
2016-05-21T07:23:09.528Z,970.11
2016-05-21T07:24:09.546Z,970.08
2016-05-21T07:25:09.548Z,970.06
2016-05-21T07:26:09.568Z,970.04
2016-05-21T07:27:09.570Z,970.08
2016-05-21T07:28:09.572Z,970.08
2016-05-21T07:29:09.592Z,970.12
2016-05-21T07:30:09.609Z,970.11
2016-05-21T07:31:09.612Z,970.09
2016-05-21T07:32:09.615Z,970.1
2016-05-21T07:33:09.633Z,970.13
2016-05-21T07:34:09.636Z,970.14
2016-05-21T07:35:09.654Z,970.12
2016-05-21T07:36:09.657Z,970.16
2016-05-21T07:37:09.675Z,970.15
2016-05-21T07:38:09.677Z,970.17
2016-05-21T07:39:09.696Z,970.15
2016-05-21T07:40:09.699Z,970.13
2016-05-21T07:41:09.717Z,970.16
2016-05-21T07:42:09.719Z,970.13
2016-05-21T07:43:09.738Z,970.18
2016-05-21T07:44:09.741Z,970.17
2016-05-21T07:45:09.759Z,970.21
2016-05-21T07:46:09.762Z,970.16
2016-05-21T07:47:09.780Z,970.19
2016-05-21T07:48:09.783Z,970.23
2016-05-21T07:49:09.801Z,970.27
2016-05-21T07:50:09.804Z,970.25
2016-05-21T07:51:09.823Z,970.26
2016-05-21T07:52:09.825Z,970.31
2016-05-21T07:53:09.842Z,970.35
2016-05-21T07:54:09.846Z,970.31
2016-05-21T07:55:09.864Z,970.28
2016-05-21T07:56:10.070Z,970.3
2016-05-21T07:57:09.870Z,970.33
2016-05-21T07:58:09.887Z,970.35
2016-05-21T07:59:09.890Z,970.39
2016-05-21T08:00:09.909Z,970.34
2016-05-21T08:01:09.912Z,970.32
2016-05-21T08:02:09.914Z,970.36
2016-05-21T08:03:09.933Z,970.39
2016-05-21T08:04:09.950Z,970.36
2016-05-21T08:05:09.953Z,970.38
2016-05-21T08:06:09.956Z,970.37
2016-05-21T08:07:09.975Z,970.41
2016-05-21T08:08:09.977Z,970.37
2016-05-21T08:09:09.980Z,970.36
2016-05-21T08:10:09.999Z,970.39
2016-05-21T08:11:10.016Z,970.35
2016-05-21T08:12:10.019Z,970.39
2016-05-21T08:13:10.022Z,970.37
2016-05-21T08:14:10.040Z,970.34
2016-05-21T08:15:10.044Z,970.35
2016-05-21T08:16:10.060Z,970.28
2016-05-21T08:17:10.064Z,970.41
2016-05-21T08:18:10.066Z,970.35
2016-05-21T08:19:10.085Z,970.22
2016-05-21T08:20:10.088Z,970.22
2016-05-21T08:21:10.106Z,970.27
2016-05-21T08:22:10.109Z,970.24
2016-05-21T08:23:10.112Z,970.22
2016-05-21T08:24:10.129Z,970.05
2016-05-21T08:25:10.148Z,970
2016-05-21T08:26:10.151Z,969.96
2016-05-21T08:27:10.169Z,969.93
2016-05-21T08:28:10.172Z,969.87
2016-05-21T08:29:10.175Z,969.88
2016-05-21T08:30:10.178Z,969.85
2016-05-21T08:31:10.195Z,969.84
2016-05-21T08:32:10.198Z,969.86
2016-05-21T08:33:10.216Z,969.8
2016-05-21T08:34:10.234Z,969.8
2016-05-21T08:35:10.237Z,969.81
2016-05-21T08:36:10.240Z,969.77
2016-05-21T08:37:10.259Z,969.79
2016-05-21T08:38:10.261Z,969.75
2016-05-21T08:39:10.280Z,969.75
2016-05-21T08:40:10.282Z,969.71
2016-05-21T08:41:10.285Z,969.68
2016-05-21T08:42:10.319Z,969.65
2016-05-21T08:43:10.305Z,969.62
2016-05-21T08:44:10.324Z,969.61
2016-05-21T08:45:10.327Z,969.59
2016-05-21T08:46:10.345Z,969.57
2016-05-21T08:47:10.348Z,969.56
2016-05-21T08:48:10.351Z,969.53
2016-05-21T08:49:10.369Z,969.54
2016-05-21T08:50:10.371Z,969.53
2016-05-21T08:51:10.390Z,969.5
2016-05-21T08:52:10.392Z,969.48
2016-05-21T08:53:10.410Z,969.5
2016-05-21T08:54:10.413Z,969.49
2016-05-21T08:55:10.416Z,969.48
2016-05-21T08:56:10.434Z,969.49
2016-05-21T08:57:10.437Z,969.5
2016-05-21T08:58:10.456Z,969.5
2016-05-21T08:59:10.459Z,969.5
2016-05-21T09:00:10.461Z,969.4
2016-05-21T09:01:10.495Z,969.38
2016-05-21T09:02:10.481Z,969.41
2016-05-21T09:03:10.501Z,969.4
2016-05-21T09:04:10.503Z,969.38
2016-05-21T09:05:10.505Z,969.42
2016-05-21T09:06:10.525Z,969.44
2016-05-21T09:07:10.527Z,969.43
2016-05-21T09:08:10.530Z,969.45
2016-05-21T09:09:10.548Z,969.4
2016-05-21T09:10:10.551Z,969.44
2016-05-21T09:11:10.678Z,969.46
2016-05-21T09:12:10.572Z,969.47
2016-05-21T09:13:10.574Z,969.43
2016-05-21T09:14:10.577Z,969.45
2016-05-21T09:15:10.595Z,969.43
2016-05-21T09:16:10.597Z,969.4
2016-05-21T09:17:10.600Z,969.39
2016-05-21T09:18:10.625Z,969.39
2016-05-21T09:19:10.665Z,969.43
2016-05-21T09:20:10.688Z,969.44
2016-05-21T09:21:10.712Z,969.45
2016-05-21T09:22:10.752Z,969.43
2016-05-21T09:23:10.761Z,969.45
2016-05-21T09:24:10.772Z,969.42
2016-05-21T09:25:10.783Z,969.44
2016-05-21T09:26:10.793Z,969.39
2016-05-21T09:27:11.381Z,969.37
2016-05-21T09:28:10.823Z,969.39
2016-05-21T09:29:10.828Z,969.34
2016-05-21T09:30:10.834Z,969.35
2016-05-21T09:31:10.839Z,969.31
2016-05-21T09:32:10.861Z,969.3
2016-05-21T09:33:10.865Z,969.32
2016-05-21T09:34:10.868Z,969.27
2016-05-21T09:35:10.873Z,969.29
2016-05-21T09:36:10.876Z,969.28
2016-05-21T09:37:10.880Z,969.32
2016-05-21T09:38:10.899Z,969.28
2016-05-21T09:39:10.918Z,969.28
2016-05-21T09:40:10.905Z,969.28
2016-05-21T09:41:10.923Z,969.23
2016-05-21T09:42:10.927Z,969.23
2016-05-21T09:43:10.930Z,969.22
2016-05-21T09:44:10.932Z,969.22
2016-05-21T09:45:10.934Z,969.18
2016-05-21T09:46:10.937Z,969.21
2016-05-21T09:47:10.940Z,969.15
2016-05-21T09:48:10.959Z,969.14
2016-05-21T09:49:10.962Z,969.19
2016-05-21T09:50:10.963Z,969.17
2016-05-21T09:51:10.967Z,969.16
2016-05-21T09:52:10.969Z,969.14
2016-05-21T09:53:10.972Z,969.14
2016-05-21T09:54:10.974Z,969.09
2016-05-21T09:55:10.992Z,969.09
2016-05-21T09:56:10.995Z,969.07
2016-05-21T09:57:11.060Z,969.03
2016-05-21T09:58:11.000Z,969.05
2016-05-21T09:59:11.003Z,969.02
2016-05-21T10:00:11.006Z,969
2016-05-21T10:01:11.008Z,969
2016-05-21T10:02:11.011Z,968.97
2016-05-21T10:03:11.030Z,968.97
2016-05-21T10:04:11.033Z,968.92
2016-05-21T10:05:11.035Z,968.94
2016-05-21T10:06:11.038Z,968.97
2016-05-21T10:07:11.041Z,968.95
2016-05-21T10:08:11.043Z,968.92
2016-05-21T10:09:11.046Z,968.89
2016-05-21T10:10:11.065Z,968.89
2016-05-21T10:11:11.067Z,968.89
2016-05-21T10:12:11.070Z,968.85
2016-05-21T10:13:11.073Z,968.87
2016-05-21T10:14:11.075Z,968.85
2016-05-21T10:15:11.078Z,968.86
2016-05-21T10:16:11.080Z,968.85
2016-05-21T10:17:11.084Z,968.85
2016-05-21T10:18:11.086Z,968.82
2016-05-21T10:19:11.088Z,968.82
2016-05-21T10:20:11.106Z,968.81
2016-05-21T10:21:11.110Z,968.75
2016-05-21T10:22:11.112Z,968.76
2016-05-21T10:23:11.115Z,968.77
2016-05-21T10:24:11.118Z,968.74
2016-05-21T10:25:11.120Z,968.75
2016-05-21T10:26:11.122Z,968.75
2016-05-21T10:27:11.125Z,968.75
2016-05-21T10:28:11.128Z,968.75
2016-05-21T10:29:11.131Z,968.75
2016-05-21T10:30:11.149Z,968.74
2016-05-21T10:31:11.152Z,968.77
2016-05-21T10:32:11.155Z,968.75
2016-05-21T10:33:11.158Z,968.74
2016-05-21T10:34:11.160Z,968.76
2016-05-21T10:35:11.163Z,968.73
2016-05-21T10:36:11.166Z,968.7
2016-05-21T10:37:11.169Z,968.71
2016-05-21T10:38:11.171Z,968.65
2016-05-21T10:39:11.174Z,968.69
2016-05-21T10:40:11.177Z,968.69
2016-05-21T10:41:11.195Z,968.69
2016-05-21T10:42:11.775Z,968.64
2016-05-21T10:43:11.200Z,968.67
2016-05-21T10:44:11.203Z,968.68
2016-05-21T10:45:11.206Z,968.68
2016-05-21T10:46:11.208Z,968.72
2016-05-21T10:47:11.211Z,968.73
2016-05-21T10:48:11.214Z,968.69
2016-05-21T10:49:11.217Z,968.7
2016-05-21T10:50:11.219Z,968.7
2016-05-21T10:51:11.237Z,968.71
2016-05-21T10:52:11.225Z,968.69
2016-05-21T10:53:11.228Z,968.72
2016-05-21T10:54:11.245Z,968.66
2016-05-21T10:55:11.248Z,968.68
2016-05-21T10:56:11.251Z,968.69
2016-05-21T10:57:11.254Z,968.68
2016-05-21T10:58:11.255Z,968.68
2016-05-21T10:59:11.259Z,968.66
2016-05-21T11:00:11.261Z,968.65
2016-05-21T11:01:11.264Z,968.66
2016-05-21T11:02:11.266Z,968.63
2016-05-21T11:03:11.270Z,968.61
2016-05-21T11:04:11.272Z,968.64
2016-05-21T11:05:11.274Z,968.61
2016-05-21T11:06:11.277Z,968.6
2016-05-21T11:07:11.280Z,968.59
2016-05-21T11:08:11.299Z,968.59
2016-05-21T11:09:11.301Z,968.57
2016-05-21T11:10:11.304Z,968.58
2016-05-21T11:11:11.307Z,968.5
2016-05-21T11:12:11.810Z,968.49
2016-05-21T11:13:11.312Z,968.45
2016-05-21T11:14:11.315Z,968.44
2016-05-21T11:15:11.318Z,968.42
2016-05-21T11:16:11.320Z,968.43
2016-05-21T11:17:11.323Z,968.4
2016-05-21T11:18:11.326Z,968.39
2016-05-21T11:19:11.328Z,968.38
2016-05-21T11:20:11.331Z,968.37
2016-05-21T11:21:11.334Z,968.35
2016-05-21T11:22:11.336Z,968.35
2016-05-21T11:23:11.354Z,968.35
2016-05-21T11:24:11.357Z,968.32
2016-05-21T11:25:11.359Z,968.29
2016-05-21T11:26:11.362Z,968.32
2016-05-21T11:27:11.724Z,968.26
2016-05-21T11:28:11.368Z,968.21
2016-05-21T11:29:11.370Z,968.19
2016-05-21T11:30:11.373Z,968.13
2016-05-21T11:31:11.375Z,968.17
2016-05-21T11:32:11.378Z,968.12
2016-05-21T11:33:11.397Z,968.08
2016-05-21T11:34:11.384Z,968.06
2016-05-21T11:35:11.386Z,968.04
2016-05-21T11:36:11.389Z,968.02
2016-05-21T11:37:11.392Z,968
2016-05-21T11:38:11.395Z,968
2016-05-21T11:39:11.413Z,968
2016-05-21T11:40:11.416Z,967.99
2016-05-21T11:41:11.402Z,968
2016-05-21T11:42:11.562Z,968
2016-05-21T11:43:11.423Z,967.98
2016-05-21T11:44:11.427Z,967.93
2016-05-21T11:45:11.429Z,968
2016-05-21T11:46:11.432Z,968
2016-05-21T11:47:11.435Z,967.99
2016-05-21T11:48:11.438Z,967.93
2016-05-21T11:49:11.440Z,967.92
2016-05-21T11:50:11.443Z,967.9
2016-05-21T11:51:11.445Z,967.94
2016-05-21T11:52:11.448Z,967.99
2016-05-21T11:53:11.451Z,967.97
2016-05-21T11:54:11.453Z,967.98
2016-05-21T11:55:11.456Z,967.95
2016-05-21T11:56:11.475Z,967.99
2016-05-21T11:57:11.478Z,967.97
2016-05-21T11:58:11.464Z,967.95
2016-05-21T11:59:11.483Z,967.99
2016-05-21T12:00:11.485Z,967.97
2016-05-21T12:01:11.488Z,967.93
2016-05-21T12:02:11.490Z,967.95
2016-05-21T12:03:11.494Z,967.96
2016-05-21T12:04:11.481Z,967.98
2016-05-21T12:05:11.499Z,967.99
2016-05-21T12:06:11.501Z,968
2016-05-21T12:07:11.504Z,968
2016-05-21T12:08:11.507Z,968.04
2016-05-21T12:09:11.510Z,968.02
2016-05-21T12:10:11.513Z,968.03
2016-05-21T12:11:11.515Z,968.01
2016-05-21T12:12:11.533Z,967.97
2016-05-21T12:13:11.520Z,967.99
2016-05-21T12:14:11.523Z,967.99
2016-05-21T12:15:11.526Z,967.96
2016-05-21T12:16:11.529Z,967.94
2016-05-21T12:17:11.531Z,967.9
2016-05-21T12:18:11.549Z,967.91
2016-05-21T12:19:11.537Z,967.89
2016-05-21T12:20:11.539Z,967.87
2016-05-21T12:21:11.542Z,967.89
2016-05-21T12:22:11.560Z,967.96
2016-05-21T12:23:11.547Z,967.94
2016-05-21T12:24:11.565Z,967.96
2016-05-21T12:25:11.568Z,967.89
2016-05-21T12:26:11.570Z,967.87
2016-05-21T12:27:11.573Z,967.87
2016-05-21T12:28:11.576Z,967.86
2016-05-21T12:29:11.578Z,967.85
2016-05-21T12:30:11.581Z,967.84
2016-05-21T12:31:11.584Z,967.85